createdAt,value
2023-03-15T00:00:02.945Z,71.49
2023-03-15T00:01:11.121Z,70.95
2023-03-15T00:02:13.550Z,69.98
2023-03-15T00:03:16.485Z,71.22
2023-03-15T00:04:18.945Z,70.68
2023-03-15T00:05:21.764Z,71.95
2023-03-15T00:06:24.294Z,70.82
2023-03-15T00:07:26.532Z,73.89
2023-03-15T00:08:29.601Z,74.76
2023-03-15T00:09:31.810Z,70.80
2023-03-15T00:10:34.268Z,73.46
2023-03-15T00:11:36.482Z,71.87
2023-03-15T00:12:39.433Z,72.16
2023-03-15T00:13:43.211Z,72.19
2023-03-15T00:14:45.701Z,73.31
2023-03-15T00:15:53.493Z,71.47
2023-03-15T00:16:56.061Z,72.20
2023-03-15T00:17:57.972Z,71.72
2023-03-15T00:19:00.408Z,71.17
2023-03-15T00:20:03.640Z,70.91
2023-03-15T00:21:05.913Z,74.34
2023-03-15T00:22:08.610Z,74.51
2023-03-15T00:23:11.200Z,73.06
2023-03-15T00:24:13.434Z,72.85
2023-03-15T00:25:15.905Z,74.53
2023-03-15T00:26:18.339Z,72.01
2023-03-15T00:27:21.436Z,71.21
2023-03-15T00:28:26.224Z,71.07
2023-03-15T00:29:28.641Z,71.43
2023-03-15T00:30:31.239Z,70.61
2023-03-15T00:31:33.495Z,70.77
2023-03-15T00:32:36.669Z,70.97
2023-03-15T00:33:41.036Z,70.59
2023-03-15T00:34:45.331Z,73.11
2023-03-15T00:35:47.757Z,72.31
2023-03-15T00:36:52.072Z,72.19
2023-03-15T00:37:56.602Z,74.45
2023-03-15T00:38:59.058Z,72.82
2023-03-15T00:40:02.397Z,72.94
2023-03-15T00:41:11.018Z,72.18
2023-03-15T00:42:17.360Z,71.61
2023-03-15T00:43:19.841Z,73.39
2023-03-15T00:44:26.486Z,72.57
2023-03-15T00:45:29.111Z,74.01
2023-03-15T00:46:31.758Z,73.55
2023-03-15T00:47:53.049Z,72.65
2023-03-15T00:48:57.070Z,74.18
2023-03-15T00:50:00.138Z,72.60
2023-03-15T00:51:05.405Z,72.72
2023-03-15T00:52:07.800Z,73.41
2023-03-15T00:53:11.064Z,76.15
2023-03-15T00:54:13.484Z,75.22
2023-03-15T00:55:17.812Z,74.13
2023-03-15T00:56:23.833Z,74.38
2023-03-15T00:57:26.452Z,76.47
2023-03-15T00:58:28.921Z,74.39
2023-03-15T00:59:36.603Z,76.25
2023-03-15T01:00:39.194Z,73.84
2023-03-15T01:01:45.357Z,75.30
2023-03-15T01:02:48.531Z,75.45
2023-03-15T01:03:51.725Z,76.53
2023-03-15T01:04:54.293Z,73.83
2023-03-15T01:05:56.718Z,75.02
2023-03-15T01:06:59.451Z,74.49
2023-03-15T01:08:02.623Z,76.85
2023-03-15T01:09:06.093Z,74.03
2023-03-15T01:10:11.389Z,74.37
2023-03-15T01:11:17.289Z,76.35
2023-03-15T01:12:19.654Z,75.04
2023-03-15T01:13:21.820Z,75.05
2023-03-15T01:14:24.566Z,77.54
2023-03-15T01:15:27.498Z,76.34
2023-03-15T01:16:30.727Z,74.78
2023-03-15T01:17:33.401Z,74.09
2023-03-15T01:18:37.923Z,74.08
2023-03-15T01:19:40.324Z,74.67
2023-03-15T01:20:44.482Z,74.61
2023-03-15T01:21:47.579Z,75.54
2023-03-15T01:22:52.790Z,76.37
2023-03-15T01:23:55.246Z,76.37
2023-03-15T01:24:57.582Z,76.36
2023-03-15T01:26:00.961Z,76.37
2023-03-15T01:27:03.886Z,76.74
2023-03-15T01:28:06.962Z,76.92
2023-03-15T01:29:12.910Z,77.37
2023-03-15T01:30:15.617Z,77.40
2023-03-15T01:31:21.523Z,77.14
2023-03-15T01:32:24.193Z,77.14
2023-03-15T01:33:27.416Z,77.84
2023-03-15T01:34:31.078Z,77.21
2023-03-15T01:35:33.582Z,77.38
2023-03-15T01:36:36.222Z,77.38
2023-03-15T01:37:38.780Z,77.38
2023-03-15T01:38:41.921Z,77.55
2023-03-15T01:39:44.897Z,77.60
2023-03-15T01:40:47.770Z,77.74
2023-03-15T01:41:50.447Z,78.05
2023-03-15T01:43:05.701Z,78.11
2023-03-15T01:44:14.660Z,77.79
2023-03-15T01:45:46.118Z,77.17
2023-03-15T01:46:49.035Z,77.60
2023-03-15T01:47:53.340Z,77.93
2023-03-15T01:49:08.416Z,78.09
2023-03-15T01:50:12.975Z,78.15
2023-03-15T01:51:25.463Z,78.00
2023-03-15T01:52:32.404Z,78.21
2023-03-15T01:53:39.736Z,78.25
2023-03-15T01:54:45.622Z,78.56
2023-03-15T01:55:48.532Z,78.64
2023-03-15T01:56:59.160Z,78.29
2023-03-15T01:58:04.422Z,78.33
2023-03-15T01:59:10.676Z,78.27
2023-03-15T02:00:16.746Z,78.21
2023-03-15T02:01:27.897Z,78.43
2023-03-15T02:02:31.001Z,78.47
2023-03-15T02:04:52.992Z,78.98
2023-03-15T02:05:59.377Z,78.69
2023-03-15T02:07:10.345Z,79.43
2023-03-15T02:08:19.570Z,79.30
2023-03-15T02:09:22.979Z,79.54
2023-03-15T02:10:37.962Z,78.15
2023-03-15T02:11:42.149Z,78.61
2023-03-15T02:12:51.355Z,79.03
2023-03-15T02:13:56.750Z,79.17
2023-03-15T02:15:04.213Z,78.90
2023-03-15T02:16:07.286Z,78.93
2023-03-15T02:17:12.766Z,79.10
2023-03-15T02:18:16.253Z,79.65
2023-03-15T02:19:25.711Z,79.54
2023-03-15T02:20:59.394Z,79.68
2023-03-15T02:22:21.805Z,79.46
2023-03-15T02:23:24.714Z,80.05
2023-03-15T02:26:24.179Z,79.63
2023-03-15T02:27:30.164Z,80.27
2023-03-15T02:28:34.243Z,79.89
2023-03-15T02:29:36.822Z,79.61
2023-03-15T02:30:40.155Z,79.70
2023-03-15T02:31:43.391Z,80.09
2023-03-15T02:32:46.342Z,80.14
2023-03-15T02:33:55.620Z,80.30
2023-03-15T02:34:58.617Z,80.12
2023-03-15T02:36:11.658Z,80.38
2023-03-15T02:37:14.229Z,80.21
2023-03-15T02:38:17.163Z,79.98
2023-03-15T02:39:21.490Z,80.87
2023-03-15T02:40:29.090Z,81.19
2023-03-15T02:41:35.130Z,80.47
2023-03-15T02:42:38.735Z,80.14
2023-03-15T02:43:43.222Z,80.94
2023-03-15T02:44:48.251Z,81.15
2023-03-15T02:45:51.763Z,80.95
2023-03-15T02:46:58.068Z,80.63
2023-03-15T02:48:03.999Z,80.86
2023-03-15T02:49:07.812Z,80.78
2023-03-15T02:50:11.211Z,81.23
2023-03-15T02:51:20.264Z,80.91
2023-03-15T02:52:22.818Z,80.98
2023-03-15T02:53:25.397Z,80.93
2023-03-15T02:54:27.737Z,81.06
2023-03-15T02:55:32.768Z,81.35
2023-03-15T02:56:35.420Z,81.87
2023-03-15T02:57:38.095Z,81.87
2023-03-15T02:58:41.486Z,81.58
2023-03-15T02:59:43.885Z,81.79
2023-03-15T03:00:47.728Z,81.02
2023-03-15T03:01:50.699Z,81.55
2023-03-15T03:02:54.148Z,81.54
2023-03-15T03:03:56.681Z,82.04
2023-03-15T03:04:59.865Z,81.70
2023-03-15T03:06:03.365Z,81.46
2023-03-15T03:07:06.034Z,81.50
2023-03-15T03:08:10.203Z,81.64
2023-03-15T03:09:12.837Z,82.15
2023-03-15T03:10:18.540Z,82.53
2023-03-15T03:11:22.756Z,82.31
2023-03-15T03:12:25.870Z,82.48
2023-03-15T03:13:29.091Z,81.86
2023-03-15T03:14:31.398Z,81.94
2023-03-15T03:15:33.966Z,82.43
2023-03-15T03:16:36.648Z,82.30
2023-03-15T03:17:39.964Z,81.89
2023-03-15T03:18:42.652Z,82.19
2023-03-15T03:19:45.677Z,81.83
2023-03-15T03:20:48.969Z,81.82
2023-03-15T03:21:53.044Z,81.94
2023-03-15T03:22:55.877Z,82.17
2023-03-15T03:23:58.169Z,82.51
2023-03-15T03:25:01.257Z,82.88
2023-03-15T03:26:07.516Z,82.42
2023-03-15T03:27:10.075Z,82.24
2023-03-15T03:28:13.625Z,82.93
2023-03-15T03:29:16.034Z,83.24
2023-03-15T03:30:19.008Z,83.07
2023-03-15T03:31:25.491Z,82.88
2023-03-15T03:32:28.387Z,83.23
2023-03-15T03:33:31.207Z,83.42
2023-03-15T03:34:34.248Z,83.42
2023-03-15T03:35:37.041Z,83.30
2023-03-15T03:36:40.857Z,83.50
2023-03-15T03:37:43.617Z,83.51
2023-03-15T03:38:47.931Z,83.30
2023-03-15T03:39:50.674Z,84.25
2023-03-15T03:40:53.573Z,84.12
2023-03-15T03:41:56.034Z,83.55
2023-03-15T03:42:58.605Z,83.73
2023-03-15T03:44:01.170Z,84.05
2023-03-15T03:45:04.497Z,84.10
2023-03-15T03:46:09.095Z,83.96
2023-03-15T03:47:13.595Z,84.79
2023-03-15T03:48:17.272Z,84.34
2023-03-15T03:49:20.518Z,84.35
2023-03-15T03:50:23.175Z,84.86
2023-03-15T03:51:25.648Z,85.15
2023-03-15T03:52:28.519Z,85.02
2023-03-15T03:53:32.888Z,85.32
2023-03-15T03:54:36.040Z,85.27
2023-03-15T03:55:38.318Z,84.97
2023-03-15T03:56:40.975Z,85.25
2023-03-15T03:57:44.377Z,85.43
2023-03-15T03:58:48.638Z,85.26
2023-03-15T03:59:53.548Z,85.16
2023-03-15T04:00:57.301Z,84.93
2023-03-15T04:01:59.926Z,85.10
2023-03-15T04:03:03.846Z,85.34
2023-03-15T04:05:11.007Z,85.11
2023-03-15T04:06:15.065Z,85.11
2023-03-15T04:07:20.057Z,84.57
2023-03-15T04:08:24.238Z,85.11
2023-03-15T04:09:26.785Z,85.29
2023-03-15T04:10:31.709Z,84.86
2023-03-15T04:11:35.736Z,85.00
2023-03-15T04:12:43.169Z,85.00
2023-03-15T04:13:46.428Z,84.48
2023-03-15T04:14:49.084Z,84.76
2023-03-15T04:15:55.218Z,85.32
2023-03-15T04:16:57.596Z,84.78
2023-03-15T04:18:02.505Z,84.78
2023-03-15T04:19:09.284Z,85.01
2023-03-15T04:20:12.876Z,85.11
2023-03-15T04:21:19.003Z,84.97
2023-03-15T04:22:21.417Z,84.91
2023-03-15T04:23:25.743Z,84.90
2023-03-15T04:24:34.399Z,85.09
2023-03-15T04:25:49.984Z,85.14
2023-03-15T04:26:56.241Z,85.19
2023-03-15T04:28:03.615Z,85.21
2023-03-15T04:29:09.963Z,85.18
2023-03-15T04:30:21.814Z,85.22
2023-03-15T04:31:26.653Z,85.21
2023-03-15T04:32:33.687Z,85.01
2023-03-15T04:33:52.017Z,85.65
2023-03-15T04:35:09.046Z,85.54
2023-03-15T04:36:30.468Z,85.89
2023-03-15T04:37:43.760Z,86.06
2023-03-15T04:38:51.107Z,85.35
2023-03-15T04:40:01.352Z,85.25
2023-03-15T04:41:20.496Z,85.28
2023-03-15T04:42:33.740Z,85.53
2023-03-15T04:43:37.925Z,86.08
2023-03-15T04:44:42.215Z,86.22
2023-03-15T04:45:56.566Z,86.17
2023-03-15T04:47:06.683Z,86.37
2023-03-15T04:48:11.000Z,85.80
2023-03-15T04:49:15.308Z,85.88
2023-03-15T04:50:29.868Z,86.18
2023-03-15T04:51:42.881Z,86.40
2023-03-15T04:52:47.917Z,85.83
2023-03-15T04:53:58.552Z,85.32
2023-03-15T04:55:19.821Z,85.33
2023-03-15T04:56:38.953Z,84.53
2023-03-15T04:58:00.557Z,84.31
2023-03-15T04:59:17.427Z,84.46
2023-03-15T05:00:27.764Z,84.53
2023-03-15T05:01:38.027Z,84.60
2023-03-15T05:02:42.929Z,84.79
2023-03-15T05:03:57.581Z,85.01
2023-03-15T05:05:01.867Z,84.92
2023-03-15T05:06:07.656Z,85.23
2023-03-15T05:07:21.055Z,85.56
2023-03-15T05:08:43.546Z,85.05
2023-03-15T05:10:07.236Z,85.16
2023-03-15T05:11:11.491Z,85.27
2023-03-15T05:12:21.315Z,85.21
2023-03-15T05:13:29.181Z,85.45
2023-03-15T05:14:36.502Z,85.78
2023-03-15T05:15:57.237Z,85.91
2023-03-15T05:17:19.730Z,85.91
2023-03-15T05:19:54.529Z,85.82
2023-03-15T05:20:59.110Z,85.91
2023-03-15T05:22:06.260Z,85.89
2023-03-15T05:23:14.717Z,85.95
2023-03-15T05:24:19.004Z,86.12
2023-03-15T05:25:23.849Z,86.08
2023-03-15T05:26:40.576Z,86.06
2023-03-15T05:27:56.293Z,85.81
2023-03-15T05:29:03.885Z,85.92
2023-03-15T05:30:26.884Z,85.77
2023-03-15T05:31:37.325Z,85.92
2023-03-15T05:32:44.819Z,85.81
2023-03-15T05:33:54.922Z,85.43
2023-03-15T05:35:15.648Z,85.65
2023-03-15T05:36:23.042Z,85.61
2023-03-15T05:37:44.514Z,85.55
2023-03-15T05:40:14.929Z,85.39
2023-03-15T05:41:26.537Z,85.41
2023-03-15T05:43:56.727Z,85.53
2023-03-15T05:45:01.345Z,85.37
2023-03-15T05:46:22.255Z,85.66
2023-03-15T05:47:26.600Z,85.74
2023-03-15T05:48:47.478Z,85.77
2023-03-15T05:50:09.660Z,85.65
2023-03-15T05:51:15.242Z,85.85
2023-03-15T05:52:22.467Z,85.66
2023-03-15T05:53:27.301Z,85.57
2023-03-15T05:54:34.565Z,85.49
2023-03-15T05:55:38.893Z,85.36
2023-03-15T05:56:46.308Z,85.36
2023-03-15T05:57:50.502Z,85.34
2023-03-15T05:58:54.784Z,85.01
2023-03-15T05:59:59.004Z,85.14
2023-03-15T06:01:16.935Z,85.04
2023-03-15T06:02:31.201Z,85.14
2023-03-15T06:03:47.352Z,85.14
2023-03-15T06:04:54.003Z,85.03
2023-03-15T06:06:00.067Z,85.19
2023-03-15T06:07:04.529Z,85.15
2023-03-15T06:08:08.065Z,85.11
2023-03-15T06:09:11.163Z,85.00
2023-03-15T06:10:14.206Z,85.03
2023-03-15T06:11:17.058Z,84.93
2023-03-15T06:12:22.881Z,84.97
2023-03-15T06:13:25.387Z,84.98
2023-03-15T06:14:28.211Z,84.75
2023-03-15T06:15:33.123Z,84.50
2023-03-15T06:16:36.227Z,84.47
2023-03-15T06:17:39.047Z,84.13
2023-03-15T06:18:41.745Z,84.13
2023-03-15T06:19:44.721Z,84.08
2023-03-15T06:20:47.418Z,84.02
2023-03-15T06:21:51.253Z,83.89
2023-03-15T06:22:58.424Z,83.30
2023-03-15T06:24:09.412Z,83.22
2023-03-15T06:25:12.722Z,83.42
2023-03-15T06:26:17.128Z,83.63
2023-03-15T06:27:21.961Z,83.54
2023-03-15T06:28:24.650Z,83.37
2023-03-15T06:29:29.038Z,83.35
2023-03-15T06:30:32.180Z,83.31
2023-03-15T06:31:35.858Z,83.34
2023-03-15T06:32:43.220Z,83.10
2023-03-15T06:33:46.681Z,83.56
2023-03-15T06:34:49.340Z,83.61
2023-03-15T06:35:51.937Z,83.24
2023-03-15T06:36:55.322Z,83.45
2023-03-15T06:37:57.644Z,83.42
2023-03-15T06:39:02.375Z,83.35
2023-03-15T06:40:08.281Z,83.09
2023-03-15T06:41:11.974Z,83.38
2023-03-15T06:42:15.098Z,83.62
2023-03-15T06:43:20.218Z,83.62
2023-03-15T06:44:22.951Z,83.39
2023-03-15T06:45:27.680Z,83.24
2023-03-15T06:46:31.617Z,83.37
2023-03-15T06:47:34.271Z,83.26
2023-03-15T06:48:40.279Z,83.14
2023-03-15T06:49:49.338Z,83.06
2023-03-15T06:50:52.781Z,82.73
2023-03-15T06:51:55.101Z,82.74
2023-03-15T06:52:59.309Z,82.25
2023-03-15T06:54:02.459Z,82.24
2023-03-15T06:55:07.489Z,82.48
2023-03-15T06:56:11.057Z,82.18
2023-03-15T06:57:13.664Z,82.29
2023-03-15T06:58:16.911Z,82.00
2023-03-15T06:59:19.413Z,81.79
2023-03-15T07:00:21.982Z,81.91
2023-03-15T07:01:25.069Z,81.33
2023-03-15T07:02:27.455Z,80.88
2023-03-15T07:03:29.789Z,80.64
2023-03-15T07:04:32.441Z,80.49
2023-03-15T07:05:34.996Z,80.48
2023-03-15T07:06:37.623Z,80.48
2023-03-15T07:07:40.878Z,80.30
2023-03-15T07:08:43.397Z,80.14
2023-03-15T07:09:45.768Z,80.08
2023-03-15T07:10:49.142Z,79.81
2023-03-15T07:11:51.433Z,79.74
2023-03-15T07:12:53.901Z,79.01
2023-03-15T07:13:56.331Z,78.88
2023-03-15T07:14:59.097Z,78.46
2023-03-15T07:16:01.454Z,78.21
2023-03-15T07:17:04.139Z,77.67
2023-03-15T07:18:06.984Z,76.92
2023-03-15T07:19:09.691Z,76.78
2023-03-15T07:20:13.405Z,76.94
2023-03-15T07:21:15.804Z,77.16
2023-03-15T07:22:18.417Z,76.95
2023-03-15T07:23:20.561Z,76.97
2023-03-15T07:24:23.027Z,77.02
2023-03-15T07:25:25.483Z,77.31
2023-03-15T07:26:28.253Z,77.33
2023-03-15T07:27:30.744Z,76.79
2023-03-15T07:28:33.009Z,76.90
2023-03-15T07:29:35.365Z,76.57
2023-03-15T07:30:38.232Z,76.94
2023-03-15T07:31:40.706Z,77.41
2023-03-15T07:32:43.322Z,77.36
2023-03-15T07:33:46.521Z,76.85
2023-03-15T07:34:48.875Z,76.85
2023-03-15T07:35:53.347Z,76.80
2023-03-15T07:36:55.915Z,76.44
2023-03-15T07:37:58.922Z,76.77
2023-03-15T07:39:04.226Z,76.67
2023-03-15T07:40:12.511Z,76.57
2023-03-15T07:41:15.379Z,76.39
2023-03-15T07:42:19.811Z,76.37
2023-03-15T07:43:25.216Z,76.55
2023-03-15T07:44:29.625Z,76.39
2023-03-15T07:45:33.349Z,76.25
2023-03-15T07:46:35.793Z,75.72
2023-03-15T07:47:38.112Z,75.27
2023-03-15T07:49:03.978Z,76.23
2023-03-15T07:50:07.282Z,79.28
2023-03-15T07:51:09.728Z,76.93
2023-03-15T07:52:13.204Z,77.06
2023-03-15T07:53:15.712Z,76.08
2023-03-15T07:54:18.890Z,75.23
2023-03-15T07:55:22.248Z,76.39
2023-03-15T07:56:24.670Z,78.40
2023-03-15T07:57:28.968Z,76.70
2023-03-15T07:58:32.411Z,76.40
2023-03-15T07:59:35.071Z,76.24
2023-03-15T08:00:38.757Z,76.98
2023-03-15T08:01:41.470Z,80.53
2023-03-15T08:02:44.413Z,76.62
2023-03-15T08:03:47.096Z,77.65
2023-03-15T08:04:50.831Z,78.13
2023-03-15T08:05:53.756Z,76.70
2023-03-15T08:06:56.449Z,77.62
2023-03-15T08:07:59.433Z,76.50
2023-03-15T08:09:04.596Z,75.79
2023-03-15T08:10:09.226Z,72.44
2023-03-15T08:11:12.036Z,72.42
2023-03-15T08:12:14.537Z,74.21
2023-03-15T08:13:16.690Z,73.21
2023-03-15T08:14:20.206Z,71.65
2023-03-15T08:16:46.671Z,75.44
2023-03-15T08:17:52.152Z,72.01
2023-03-15T08:18:55.170Z,72.61
2023-03-15T08:19:58.476Z,70.37
2023-03-15T08:21:00.848Z,71.34
2023-03-15T08:22:03.706Z,71.58
2023-03-15T08:23:07.380Z,73.10
2023-03-15T08:24:10.222Z,71.90
2023-03-15T08:25:15.829Z,72.26
2023-03-15T08:26:18.468Z,72.88
2023-03-15T08:27:21.296Z,70.28
2023-03-15T08:28:24.083Z,69.90
2023-03-15T08:29:26.618Z,70.40
2023-03-15T08:30:29.595Z,72.58
2023-03-15T08:31:32.958Z,72.58
2023-03-15T08:32:35.127Z,73.14
2023-03-15T08:33:37.512Z,70.51
2023-03-15T08:34:39.972Z,68.22
2023-03-15T08:35:42.959Z,72.22
2023-03-15T08:36:49.722Z,67.99
2023-03-15T08:37:52.330Z,67.57
2023-03-15T08:38:54.686Z,67.66
2023-03-15T08:40:04.678Z,68.12
2023-03-15T08:41:07.233Z,69.29
2023-03-15T08:42:10.112Z,69.21
2023-03-15T08:43:12.454Z,68.98
2023-03-15T08:44:15.253Z,69.36
2023-03-15T08:45:19.293Z,69.24
2023-03-15T08:46:22.670Z,69.36
2023-03-15T08:47:26.722Z,69.74
2023-03-15T08:48:31.734Z,70.29
2023-03-15T08:49:34.763Z,70.67
2023-03-15T08:50:38.033Z,70.95
2023-03-15T08:51:41.467Z,71.06
2023-03-15T08:52:43.895Z,70.14
2023-03-15T08:53:47.063Z,70.41
2023-03-15T08:54:50.012Z,70.58
2023-03-15T08:55:52.643Z,69.98
2023-03-15T08:56:55.621Z,69.91
2023-03-15T08:57:59.852Z,69.42
2023-03-15T08:59:02.197Z,69.19
2023-03-15T09:00:08.873Z,68.54
2023-03-15T09:01:13.103Z,68.38
2023-03-15T09:02:15.615Z,69.12
2023-03-15T09:03:20.309Z,69.45
2023-03-15T09:04:22.803Z,69.86
2023-03-15T09:05:25.907Z,69.90
2023-03-15T09:06:28.832Z,70.06
2023-03-15T09:07:33.280Z,70.15
2023-03-15T09:08:35.936Z,70.28
2023-03-15T09:09:38.332Z,69.71
2023-03-15T09:10:40.692Z,69.42
2023-03-15T09:11:43.361Z,69.47
2023-03-15T09:12:48.309Z,70.12
2023-03-15T09:13:50.882Z,69.35
2023-03-15T09:14:53.338Z,69.12
2023-03-15T09:15:58.017Z,69.12
2023-03-15T09:17:01.619Z,68.77
2023-03-15T09:18:04.874Z,75.48
2023-03-15T09:19:07.283Z,75.48
2023-03-15T09:20:16.101Z,75.15
2023-03-15T09:21:18.509Z,74.97
2023-03-15T09:22:38.147Z,70.16
2023-03-15T09:23:28.657Z,71.00
2023-03-15T09:24:33.280Z,68.87
2023-03-15T09:25:40.058Z,66.95
2023-03-15T09:26:42.709Z,68.49
2023-03-15T09:27:45.164Z,69.13
2023-03-15T09:28:47.524Z,67.24
2023-03-15T09:29:49.993Z,67.17
2023-03-15T09:30:52.921Z,66.47
2023-03-15T09:31:56.805Z,67.48
2023-03-15T09:33:00.256Z,68.47
2023-03-15T09:34:04.048Z,68.88
2023-03-15T09:35:09.907Z,68.86
2023-03-15T09:36:12.405Z,69.14
2023-03-15T09:37:14.754Z,70.37
2023-03-15T09:38:21.543Z,68.71
2023-03-15T09:39:25.216Z,70.28
2023-03-15T09:40:36.920Z,68.71
2023-03-15T09:41:45.760Z,67.80
2023-03-15T09:43:11.309Z,69.28
2023-03-15T09:44:38.476Z,71.04
2023-03-15T09:45:51.750Z,66.95
2023-03-15T09:47:14.685Z,70.60
2023-03-15T09:48:29.189Z,67.19
2023-03-15T09:49:35.259Z,67.17
2023-03-15T09:50:47.277Z,68.20
2023-03-15T09:51:53.245Z,66.55
2023-03-15T09:53:08.516Z,66.29
2023-03-15T09:54:32.687Z,68.05
2023-03-15T09:55:35.366Z,68.31
2023-03-15T09:56:45.659Z,67.92
2023-03-15T09:57:58.550Z,67.98
2023-03-15T09:59:02.278Z,67.75
2023-03-15T10:00:08.414Z,67.30
2023-03-15T10:01:13.868Z,69.09
2023-03-15T10:02:26.652Z,67.71
2023-03-15T10:03:50.265Z,66.18
2023-03-15T10:04:56.306Z,66.73
2023-03-15T10:06:02.761Z,67.38
2023-03-15T10:07:09.019Z,67.45
2023-03-15T10:08:15.278Z,65.50
2023-03-15T10:09:21.456Z,65.95
2023-03-15T10:10:33.889Z,67.25
2023-03-15T10:11:49.243Z,67.00
2023-03-15T10:12:58.261Z,64.42
2023-03-15T10:14:10.253Z,66.82
2023-03-15T10:15:35.187Z,64.49
2023-03-15T10:16:40.936Z,64.63
2023-03-15T10:18:11.544Z,66.11
2023-03-15T10:19:38.925Z,68.02
2023-03-15T10:20:45.269Z,67.66
2023-03-15T10:22:20.530Z,67.40
2023-03-15T10:23:32.998Z,67.30
2023-03-15T10:24:48.101Z,66.36
2023-03-15T10:25:51.564Z,62.75
2023-03-15T10:26:54.611Z,62.21
2023-03-15T10:28:13.092Z,64.42
2023-03-15T10:29:19.017Z,63.74
2023-03-15T10:30:25.816Z,65.03
2023-03-15T10:31:41.452Z,63.72
2023-03-15T10:32:40.052Z,62.60
2023-03-15T10:33:45.182Z,62.43
2023-03-15T10:34:53.903Z,62.47
2023-03-15T10:36:09.636Z,60.94
2023-03-15T10:37:01.987Z,61.99
2023-03-15T10:38:16.014Z,61.88
2023-03-15T10:39:18.873Z,61.01
2023-03-15T10:40:47.434Z,65.37
2023-03-15T10:41:52.063Z,63.11
2023-03-15T10:42:57.497Z,62.89
2023-03-15T10:44:03.522Z,62.34
2023-03-15T10:45:17.651Z,62.76
2023-03-15T10:46:25.042Z,63.65
2023-03-15T10:47:27.834Z,63.07
2023-03-15T10:48:37.075Z,62.86
2023-03-15T10:49:41.067Z,60.14
2023-03-15T10:50:43.365Z,60.36
2023-03-15T10:51:48.041Z,60.15
2023-03-15T10:52:53.027Z,60.93
2023-03-15T10:53:59.904Z,61.76
2023-03-15T10:55:09.495Z,59.96
2023-03-15T10:56:16.487Z,58.28
2023-03-15T10:57:22.350Z,60.48
2023-03-15T10:58:29.946Z,60.22
2023-03-15T10:59:34.817Z,59.31
2023-03-15T11:00:37.516Z,57.62
2023-03-15T11:01:40.412Z,58.46
2023-03-15T11:02:55.365Z,58.38
2023-03-15T11:04:10.365Z,59.31
2023-03-15T11:05:16.627Z,59.52
2023-03-15T11:06:25.338Z,60.71
2023-03-15T11:07:28.027Z,59.76
2023-03-15T11:08:41.565Z,60.59
2023-03-15T11:09:53.293Z,60.25
2023-03-15T11:10:58.841Z,60.80
2023-03-15T11:12:04.400Z,59.46
2023-03-15T11:13:23.882Z,58.86
2023-03-15T11:14:35.882Z,56.87
2023-03-15T11:15:42.654Z,58.60
2023-03-15T11:16:54.778Z,59.03
2023-03-15T11:17:58.145Z,58.79
2023-03-15T11:19:07.922Z,59.31
2023-03-15T11:20:32.215Z,58.61
2023-03-15T11:21:36.899Z,58.18
2023-03-15T11:22:39.895Z,57.79
2023-03-15T11:23:45.851Z,58.29
2023-03-15T11:24:48.835Z,59.00
2023-03-15T11:25:53.304Z,57.96
2023-03-15T11:27:01.616Z,55.33
2023-03-15T11:28:05.411Z,57.43
2023-03-15T11:29:14.519Z,58.03
2023-03-15T11:30:18.393Z,58.16
2023-03-15T11:31:24.412Z,56.86
2023-03-15T11:32:29.472Z,59.19
2023-03-15T11:33:38.959Z,56.63
2023-03-15T11:34:47.612Z,55.27
2023-03-15T11:35:52.385Z,56.90
2023-03-15T11:37:07.588Z,57.25
2023-03-15T11:38:15.397Z,57.71
2023-03-15T11:39:15.037Z,57.82
2023-03-15T11:40:36.479Z,57.91
2023-03-15T11:41:42.588Z,58.10
2023-03-15T11:43:08.039Z,57.22
2023-03-15T11:45:42.855Z,57.12
2023-03-15T11:47:19.198Z,56.98
2023-03-15T11:48:29.582Z,56.08
2023-03-15T11:49:49.408Z,58.31
2023-03-15T11:50:55.022Z,60.26
2023-03-15T11:51:57.630Z,60.27
2023-03-15T11:53:03.469Z,59.99
2023-03-15T11:55:30.048Z,59.08
2023-03-15T11:56:48.904Z,59.73
2023-03-15T11:57:51.672Z,60.43
2023-03-15T11:59:19.298Z,60.46
2023-03-15T12:00:34.156Z,58.97
2023-03-15T12:01:37.452Z,60.90
2023-03-15T12:02:49.565Z,60.83
2023-03-15T12:03:55.489Z,61.17
2023-03-15T12:05:01.791Z,60.63
2023-03-15T12:06:20.646Z,61.48
2023-03-15T12:07:29.978Z,59.80
2023-03-15T12:08:45.448Z,59.03
2023-03-15T12:09:55.258Z,58.03
2023-03-15T12:10:57.773Z,58.99
2023-03-15T12:12:02.777Z,60.08
2023-03-15T12:13:08.694Z,61.04
2023-03-15T12:14:26.920Z,59.15
2023-03-15T12:15:32.874Z,60.47
2023-03-15T12:16:44.788Z,58.36
2023-03-15T12:17:53.545Z,56.45
2023-03-15T12:19:01.566Z,58.06
2023-03-15T12:20:13.952Z,55.67
2023-03-15T12:22:37.684Z,57.22
2023-03-15T12:23:49.540Z,55.45
2023-03-15T12:24:52.399Z,55.45
2023-03-15T12:26:02.337Z,59.62
2023-03-15T12:27:09.011Z,56.90
2023-03-15T12:28:15.763Z,55.96
2023-03-15T12:29:28.490Z,57.09
2023-03-15T12:30:34.509Z,57.43
2023-03-15T12:32:58.698Z,56.53
2023-03-15T12:34:04.253Z,57.13
2023-03-15T12:35:11.095Z,58.38
2023-03-15T12:36:38.418Z,58.82
2023-03-15T12:37:47.251Z,56.75
2023-03-15T12:39:00.338Z,56.89
2023-03-15T12:40:19.671Z,58.36
2023-03-15T12:41:40.972Z,57.59
2023-03-15T12:42:49.681Z,56.99
2023-03-15T12:43:51.981Z,59.07
2023-03-15T12:44:54.682Z,59.17
2023-03-15T12:45:56.738Z,58.72
2023-03-15T12:47:07.753Z,57.91
2023-03-15T12:48:13.797Z,60.52
2023-03-15T12:49:28.923Z,58.40
2023-03-15T12:50:47.507Z,58.44
2023-03-15T12:52:05.286Z,56.16
2023-03-15T12:53:16.863Z,57.12
2023-03-15T12:54:23.076Z,61.41
2023-03-15T12:55:28.305Z,58.33
2023-03-15T12:56:43.672Z,59.18
2023-03-15T12:57:54.473Z,58.01
2023-03-15T12:59:01.594Z,56.07
2023-03-15T13:00:09.639Z,54.94
2023-03-15T13:01:15.639Z,56.18
2023-03-15T13:02:41.766Z,57.01
2023-03-15T13:03:36.619Z,57.63
2023-03-15T13:04:40.472Z,58.09
2023-03-15T13:06:19.824Z,58.34
2023-03-15T13:07:45.598Z,58.31
2023-03-15T13:08:54.221Z,59.15
2023-03-15T13:10:01.559Z,59.08
2023-03-15T13:11:11.776Z,58.77
2023-03-15T13:12:30.723Z,59.06
2023-03-15T13:13:44.313Z,58.68
2023-03-15T13:16:33.319Z,59.30
2023-03-15T13:17:39.434Z,59.55
2023-03-15T13:19:04.688Z,58.79
2023-03-15T13:21:52.569Z,59.11
2023-03-15T13:23:16.408Z,59.63
2023-03-15T13:24:25.413Z,59.78
2023-03-15T13:25:40.647Z,59.68
2023-03-15T13:26:46.607Z,59.87
2023-03-15T13:27:56.218Z,59.68
2023-03-15T13:29:08.032Z,59.60
2023-03-15T13:30:31.829Z,60.02
2023-03-15T13:31:34.366Z,60.44
2023-03-15T13:32:39.036Z,60.68
2023-03-15T13:33:42.048Z,60.15
2023-03-15T13:34:46.789Z,60.29
2023-03-15T13:36:00.479Z,60.59
2023-03-15T13:37:03.509Z,60.63
2023-03-15T13:38:29.030Z,60.94
2023-03-15T13:39:33.150Z,61.58
2023-03-15T13:40:39.891Z,61.69
2023-03-15T13:41:42.187Z,61.40
2023-03-15T13:42:44.533Z,61.16
2023-03-15T13:43:48.484Z,61.09
2023-03-15T13:45:15.057Z,61.12
2023-03-15T13:46:21.879Z,61.43
2023-03-15T13:47:26.059Z,62.04
2023-03-15T13:48:32.059Z,62.66
2023-03-15T13:49:35.055Z,62.79
2023-03-15T13:50:38.135Z,63.32
2023-03-15T13:51:42.024Z,63.82
2023-03-15T13:52:46.355Z,63.92
2023-03-15T13:53:53.945Z,63.77
2023-03-15T13:54:56.967Z,63.46
2023-03-15T13:55:59.757Z,63.54
2023-03-15T13:57:10.236Z,63.85
2023-03-15T13:58:13.209Z,63.74
2023-03-15T13:59:17.207Z,64.12
2023-03-15T14:00:22.802Z,64.19
2023-03-15T14:01:27.839Z,64.44
2023-03-15T14:02:40.660Z,64.35
2023-03-15T14:03:46.629Z,63.86
2023-03-15T14:04:52.653Z,63.18
2023-03-15T14:05:57.546Z,62.93
2023-03-15T14:07:31.359Z,62.27
2023-03-15T14:08:37.685Z,62.53
2023-03-15T14:09:40.736Z,62.70
2023-03-15T14:10:43.165Z,63.02
2023-03-15T14:11:45.570Z,62.79
2023-03-15T14:12:48.142Z,62.42
2023-03-15T14:13:57.533Z,62.60
2023-03-15T14:15:01.759Z,62.86
2023-03-15T14:16:08.493Z,62.33
2023-03-15T14:17:21.537Z,61.81
2023-03-15T14:18:27.861Z,61.18
2023-03-15T14:19:33.356Z,60.75
2023-03-15T14:20:45.687Z,60.30
2023-03-15T14:22:00.321Z,60.31
2023-03-15T14:23:05.636Z,59.12
2023-03-15T14:24:12.393Z,57.99
2023-03-15T14:25:21.100Z,57.99
2023-03-15T14:26:31.371Z,57.44
2023-03-15T14:27:34.445Z,56.68
2023-03-15T14:28:38.824Z,55.92
2023-03-15T14:29:48.535Z,55.50
2023-03-15T14:30:56.573Z,55.00
2023-03-15T14:32:02.698Z,55.02
2023-03-15T14:34:37.336Z,54.56
2023-03-15T14:35:44.540Z,55.01
2023-03-15T14:36:47.447Z,56.02
2023-03-15T14:38:16.490Z,56.32